createdAt,value
2016-12-21T00:00:34.375Z,20.96
2016-12-21T00:01:14.923Z,21.05
2016-12-21T00:01:55.444Z,21.02
2016-12-21T00:02:35.978Z,21.03
2016-12-21T00:03:16.529Z,21.02
2016-12-21T00:03:57.065Z,21.03
2016-12-21T00:04:37.601Z,20.96
2016-12-21T00:05:18.129Z,21.03
2016-12-21T00:05:58.652Z,20.99
2016-12-21T00:06:39.194Z,20.99
2016-12-21T00:07:19.728Z,21
2016-12-21T00:08:00.262Z,20.99
2016-12-21T00:08:40.771Z,20.97
2016-12-21T00:09:21.298Z,21
2016-12-21T00:10:01.844Z,21.06
2016-12-21T00:10:42.374Z,21.03
2016-12-21T00:11:22.901Z,20.99
2016-12-21T00:12:03.421Z,21.03
2016-12-21T00:12:43.957Z,21.05
2016-12-21T00:13:24.495Z,21
2016-12-21T00:14:05.033Z,20.99
2016-12-21T00:14:45.568Z,21.03
2016-12-21T00:15:26.104Z,20.97
2016-12-21T00:16:06.641Z,21
2016-12-21T00:16:47.181Z,20.96
2016-12-21T00:17:27.700Z,20.96
2016-12-21T00:18:08.221Z,21.06
2016-12-21T00:18:48.764Z,20.97
2016-12-21T00:19:29.298Z,21.05
2016-12-21T00:20:09.826Z,21.02
2016-12-21T00:20:50.357Z,21
2016-12-21T00:21:30.892Z,21.03
2016-12-21T00:22:11.416Z,21.06
2016-12-21T00:22:51.948Z,21.05
2016-12-21T00:23:32.485Z,20.97
2016-12-21T00:24:13.009Z,20.99
2016-12-21T00:24:53.539Z,21.03
2016-12-21T00:25:34.076Z,21.03
2016-12-21T00:26:14.616Z,21
2016-12-21T00:26:55.156Z,21
2016-12-21T00:27:35.696Z,21
2016-12-21T00:28:16.329Z,21
2016-12-21T00:28:56.870Z,20.99
2016-12-21T00:29:37.429Z,20.99
2016-12-21T00:30:17.944Z,20.99
2016-12-21T00:30:58.478Z,20.99
2016-12-21T00:31:39.003Z,20.99
2016-12-21T00:32:19.530Z,21.02
2016-12-21T00:33:00.053Z,20.99
2016-12-21T00:33:40.593Z,20.96
2016-12-21T00:34:21.127Z,20.97
2016-12-21T00:35:01.671Z,20.99
2016-12-21T00:35:42.206Z,21.06
2016-12-21T00:36:22.719Z,21
2016-12-21T00:37:03.254Z,21.06
2016-12-21T00:37:43.789Z,21.02
2016-12-21T00:38:24.324Z,20.95
2016-12-21T00:39:04.861Z,21
2016-12-21T00:39:45.391Z,20.99
2016-12-21T00:40:25.925Z,20.96
2016-12-21T00:41:06.454Z,21.05
2016-12-21T00:41:46.994Z,21.03
2016-12-21T00:42:27.529Z,20.99
2016-12-21T00:43:08.077Z,20.96
2016-12-21T00:43:48.611Z,21.03
2016-12-21T00:44:29.154Z,21.06
2016-12-21T00:45:09.686Z,21
2016-12-21T00:45:50.224Z,21.02
2016-12-21T00:46:30.750Z,20.96
2016-12-21T00:47:11.278Z,21.03
2016-12-21T00:47:51.825Z,21
2016-12-21T00:48:32.358Z,21.05
2016-12-21T00:49:12.903Z,21.03
2016-12-21T00:49:53.435Z,20.97
2016-12-21T00:50:33.969Z,21.03
2016-12-21T00:51:14.503Z,21.09
2016-12-21T00:51:55.041Z,21.02
2016-12-21T00:52:35.580Z,20.95
2016-12-21T00:53:16.129Z,21.03
2016-12-21T00:53:56.665Z,21.06
2016-12-21T00:54:37.186Z,21.05
2016-12-21T00:55:17.724Z,21.06
2016-12-21T00:55:58.253Z,21.06
2016-12-21T00:56:38.783Z,21.06
2016-12-21T00:57:19.307Z,21.06
2016-12-21T00:57:59.842Z,21.06
2016-12-21T00:58:40.369Z,21
2016-12-21T00:59:20.899Z,21.05
2016-12-21T01:00:01.430Z,21.06
2016-12-21T01:00:41.957Z,20.99
2016-12-21T01:01:22.506Z,21.05
2016-12-21T01:02:03.047Z,21.05
2016-12-21T01:02:43.563Z,21.06
2016-12-21T01:03:24.100Z,21.09
2016-12-21T01:04:04.629Z,20.99
2016-12-21T01:04:45.156Z,21.02
2016-12-21T01:05:25.688Z,21.06
2016-12-21T01:06:06.229Z,21.05
2016-12-21T01:06:46.754Z,21.02
2016-12-21T01:07:27.289Z,21.05
2016-12-21T01:08:07.823Z,21.11
2016-12-21T01:08:48.354Z,21.12
2016-12-21T01:09:28.883Z,21.03
2016-12-21T01:10:09.419Z,21.05
2016-12-21T01:10:49.948Z,21.12
2016-12-21T01:11:30.486Z,21.07
2016-12-21T01:12:11.029Z,21.12
2016-12-21T01:12:51.558Z,21.07
2016-12-21T01:13:32.083Z,21.06
2016-12-21T01:14:12.620Z,21.05
2016-12-21T01:14:53.152Z,21.17
2016-12-21T01:15:33.692Z,21.07
2016-12-21T01:16:14.220Z,21.06
2016-12-21T01:16:54.755Z,21.07
2016-12-21T01:17:35.287Z,21.07
2016-12-21T01:18:15.799Z,21.12
2016-12-21T01:18:56.329Z,21.03
2016-12-21T01:19:36.855Z,21.07
2016-12-21T01:20:17.381Z,21.06
2016-12-21T01:20:57.924Z,21.05
2016-12-21T01:21:38.471Z,21.11
2016-12-21T01:22:18.995Z,21.03
2016-12-21T01:22:59.534Z,21.06
2016-12-21T01:23:40.065Z,21.07
2016-12-21T01:24:20.587Z,21.06
2016-12-21T01:25:01.113Z,21.07
2016-12-21T01:25:41.646Z,21.11
2016-12-21T01:26:22.188Z,21.12
2016-12-21T01:27:02.736Z,21.06
2016-12-21T01:27:43.277Z,21.14
2016-12-21T01:28:23.802Z,21.05
2016-12-21T01:29:04.328Z,21.06
2016-12-21T01:29:44.867Z,21.05
2016-12-21T01:30:25.397Z,21.14
2016-12-21T01:31:05.931Z,21.07
2016-12-21T01:31:46.477Z,21.11
2016-12-21T01:32:26.997Z,21.05
2016-12-21T01:33:07.530Z,21.11
2016-12-21T01:33:48.072Z,21.14
2016-12-21T01:34:28.600Z,21.12
2016-12-21T01:35:09.135Z,21.02
2016-12-21T01:35:49.666Z,21.14
2016-12-21T01:36:30.201Z,21.05
2016-12-21T01:37:10.742Z,21.05
2016-12-21T01:37:51.278Z,21.05
2016-12-21T01:38:31.819Z,21.05
2016-12-21T01:39:12.390Z,21.09
2016-12-21T01:39:52.894Z,21.06
2016-12-21T01:40:33.426Z,21.09
2016-12-21T01:41:13.955Z,21.05
2016-12-21T01:41:54.495Z,21.12
2016-12-21T01:42:35.028Z,21.06
2016-12-21T01:43:15.565Z,21.09
2016-12-21T01:43:56.092Z,21.06
2016-12-21T01:44:36.629Z,21.06
2016-12-21T01:45:17.158Z,21.07
2016-12-21T01:45:57.695Z,21.14
2016-12-21T01:46:38.230Z,21.07
2016-12-21T01:47:18.765Z,21.05
2016-12-21T01:47:59.294Z,21.07
2016-12-21T01:48:39.827Z,21.07
2016-12-21T01:49:20.358Z,21.11
2016-12-21T01:50:00.900Z,21.09
2016-12-21T01:50:41.431Z,21.12
2016-12-21T01:51:21.963Z,21.09
2016-12-21T01:52:02.492Z,21.15
2016-12-21T01:52:43.028Z,21.11
2016-12-21T01:53:23.566Z,21.09
2016-12-21T01:54:04.091Z,21.11
2016-12-21T01:54:44.629Z,21.11
2016-12-21T01:55:25.159Z,21.17
2016-12-21T01:56:05.688Z,21.09
2016-12-21T01:56:46.223Z,21.12
2016-12-21T01:57:26.769Z,21.06
2016-12-21T01:58:07.302Z,21.17
2016-12-21T01:58:47.831Z,21.06
2016-12-21T01:59:28.363Z,21.07
2016-12-21T02:00:08.888Z,21.09
2016-12-21T02:00:49.419Z,21.09
2016-12-21T02:01:29.956Z,21.14
2016-12-21T02:02:10.489Z,21.11
2016-12-21T02:02:51.019Z,21.11
2016-12-21T02:03:31.548Z,21.06
2016-12-21T02:04:12.089Z,21.15
2016-12-21T02:04:52.621Z,21.12
2016-12-21T02:05:33.157Z,21.11
2016-12-21T02:06:13.688Z,21.05
2016-12-21T02:06:54.215Z,21.05
2016-12-21T02:07:34.746Z,21.07
2016-12-21T02:08:15.281Z,21.12
2016-12-21T02:08:55.821Z,21.09
2016-12-21T02:09:36.359Z,21.12
2016-12-21T02:10:16.903Z,21.12
2016-12-21T02:10:57.446Z,21.07
2016-12-21T02:11:37.976Z,21.06
2016-12-21T02:12:18.543Z,21.07
2016-12-21T02:12:59.052Z,21.15
2016-12-21T02:13:39.578Z,21.14
2016-12-21T02:14:20.126Z,21.09
2016-12-21T02:15:00.652Z,21.09
2016-12-21T02:15:41.182Z,21.07
2016-12-21T02:16:21.718Z,21.09
2016-12-21T02:17:02.260Z,21.07
2016-12-21T02:17:42.792Z,21.15
2016-12-21T02:18:23.328Z,21.12
2016-12-21T02:19:03.856Z,21.14
2016-12-21T02:19:44.386Z,21.15
2016-12-21T02:20:24.921Z,21.17
2016-12-21T02:21:05.462Z,21.07
2016-12-21T02:21:45.994Z,21.14
2016-12-21T02:22:26.524Z,21.09
2016-12-21T02:23:07.050Z,21.09
2016-12-21T02:23:47.586Z,21.09
2016-12-21T02:24:28.126Z,21.07
2016-12-21T02:25:08.717Z,21.09
2016-12-21T02:25:49.249Z,21.12
2016-12-21T02:26:29.766Z,21.09
2016-12-21T02:27:10.298Z,21.09
2016-12-21T02:27:50.829Z,21.17
2016-12-21T02:28:31.352Z,21.12
2016-12-21T02:29:11.887Z,21.12
2016-12-21T02:29:52.416Z,21.11
2016-12-21T02:30:32.936Z,21.18
2016-12-21T02:31:13.462Z,21.15
2016-12-21T02:31:53.989Z,21.11
2016-12-21T02:32:34.512Z,21.11
2016-12-21T02:33:15.045Z,21.17
2016-12-21T02:33:55.585Z,21.12
2016-12-21T02:34:36.107Z,21.12
2016-12-21T02:35:16.639Z,21.12
2016-12-21T02:35:57.172Z,21.18
2016-12-21T02:36:37.698Z,21.14
2016-12-21T02:37:18.236Z,21.12
2016-12-21T02:37:58.776Z,21.12
2016-12-21T02:38:39.299Z,21.11
2016-12-21T02:39:19.829Z,21.2
2016-12-21T02:40:00.367Z,21.14
2016-12-21T02:40:40.897Z,21.09
2016-12-21T02:41:21.437Z,21.18
2016-12-21T02:42:01.968Z,21.17
2016-12-21T02:42:42.506Z,21.15
2016-12-21T02:43:23.034Z,21.09
2016-12-21T02:44:03.565Z,21.15
2016-12-21T02:44:44.106Z,21.2
2016-12-21T02:45:24.629Z,21.12
2016-12-21T02:46:05.175Z,21.12
2016-12-21T02:46:45.706Z,21.12
2016-12-21T02:47:26.251Z,21.12
2016-12-21T02:48:06.778Z,21.14
2016-12-21T02:48:47.306Z,21.2
2016-12-21T02:49:27.829Z,21.09
2016-12-21T02:50:08.377Z,21.17
2016-12-21T02:50:48.903Z,21.14
2016-12-21T02:51:29.449Z,21.14
2016-12-21T02:52:09.981Z,21.17
2016-12-21T02:52:50.516Z,21.09
2016-12-21T02:53:31.046Z,21.2
2016-12-21T02:54:11.583Z,21.15
2016-12-21T02:54:52.129Z,21.12
2016-12-21T02:55:32.656Z,21.15
2016-12-21T02:56:13.195Z,21.09
2016-12-21T02:56:53.731Z,21.12
2016-12-21T02:57:34.257Z,21.15
2016-12-21T02:58:14.799Z,21.15
2016-12-21T02:58:55.332Z,21.22
2016-12-21T02:59:35.864Z,21.15
2016-12-21T03:00:16.396Z,21.14
2016-12-21T03:00:56.933Z,21.09
2016-12-21T03:01:37.471Z,21.18
2016-12-21T03:02:18.021Z,21.2
2016-12-21T03:02:58.549Z,21.14
2016-12-21T03:03:39.090Z,21.12
2016-12-21T03:04:19.638Z,21.17
2016-12-21T03:05:00.186Z,21.18
2016-12-21T03:05:40.726Z,21.15
2016-12-21T03:06:21.254Z,21.17
2016-12-21T03:07:01.789Z,21.12
2016-12-21T03:07:42.328Z,21.15
2016-12-21T03:08:22.867Z,21.15
2016-12-21T03:09:03.413Z,21.15
2016-12-21T03:09:43.947Z,21.17
2016-12-21T03:10:24.489Z,21.12
2016-12-21T03:11:05.029Z,21.18
2016-12-21T03:11:45.554Z,21.17
2016-12-21T03:12:26.096Z,21.12
2016-12-21T03:13:06.628Z,21.12
2016-12-21T03:13:47.161Z,21.17
2016-12-21T03:14:27.690Z,21.15
2016-12-21T03:15:08.235Z,21.17
2016-12-21T03:15:48.789Z,21.2
2016-12-21T03:16:29.328Z,21.18
2016-12-21T03:17:09.856Z,21.12
2016-12-21T03:17:50.383Z,21.15
2016-12-21T03:18:30.920Z,21.15
2016-12-21T03:19:11.441Z,21.18
2016-12-21T03:19:51.974Z,21.12
2016-12-21T03:20:32.530Z,21.17
2016-12-21T03:21:13.043Z,21.18
2016-12-21T03:21:53.579Z,21.18
2016-12-21T03:22:34.117Z,21.14
2016-12-21T03:23:14.662Z,21.15
2016-12-21T03:23:55.202Z,21.15
2016-12-21T03:24:35.729Z,21.18
2016-12-21T03:25:16.254Z,21.18
2016-12-21T03:25:56.795Z,21.14
2016-12-21T03:26:37.316Z,21.12
2016-12-21T03:27:17.851Z,21.18
2016-12-21T03:27:58.368Z,21.2
2016-12-21T03:28:38.899Z,21.17
2016-12-21T03:29:19.426Z,21.18
2016-12-21T03:29:59.961Z,21.17
2016-12-21T03:30:40.496Z,21.2
2016-12-21T03:31:21.028Z,21.17
2016-12-21T03:32:01.559Z,21.2
2016-12-21T03:32:42.092Z,21.15
2016-12-21T03:33:22.626Z,21.2
2016-12-21T03:34:03.162Z,21.18
2016-12-21T03:34:43.694Z,21.2
2016-12-21T03:35:24.230Z,21.17
2016-12-21T03:36:04.816Z,21.15
2016-12-21T03:36:45.349Z,21.15
2016-12-21T03:37:25.886Z,21.17
2016-12-21T03:38:06.414Z,21.15
2016-12-21T03:38:46.956Z,21.18
2016-12-21T03:39:27.497Z,21.22
2016-12-21T03:40:08.034Z,21.18
2016-12-21T03:40:48.557Z,21.2
2016-12-21T03:41:29.100Z,21.17
2016-12-21T03:42:09.642Z,21.2
2016-12-21T03:42:50.175Z,21.17
2016-12-21T03:43:30.711Z,21.22
2016-12-21T03:44:11.252Z,21.17
2016-12-21T03:44:51.779Z,21.22
2016-12-21T03:45:32.305Z,21.25
2016-12-21T03:46:12.848Z,21.22
2016-12-21T03:46:53.391Z,21.21
2016-12-21T03:47:33.909Z,21.17
2016-12-21T03:48:14.453Z,21.22
2016-12-21T03:48:54.993Z,21.24
2016-12-21T03:49:35.525Z,21.25
2016-12-21T03:50:16.062Z,21.18
2016-12-21T03:50:56.598Z,21.22
2016-12-21T03:51:37.135Z,21.27
2016-12-21T03:52:17.664Z,21.25
2016-12-21T03:52:58.202Z,21.24
2016-12-21T03:53:38.724Z,21.22
2016-12-21T03:54:19.264Z,21.24
2016-12-21T03:54:59.793Z,21.22
2016-12-21T03:55:40.327Z,21.2
2016-12-21T03:56:20.854Z,21.24
2016-12-21T03:57:01.394Z,21.25
2016-12-21T03:57:41.925Z,21.25
2016-12-21T03:58:22.465Z,21.27
2016-12-21T03:59:02.999Z,21.27
2016-12-21T03:59:43.528Z,21.27
2016-12-21T04:00:24.077Z,21.24
2016-12-21T04:01:04.616Z,21.2
2016-12-21T04:01:45.140Z,21.29
2016-12-21T04:02:25.670Z,21.27
2016-12-21T04:03:06.199Z,21.2
2016-12-21T04:03:46.739Z,21.2
2016-12-21T04:04:27.282Z,21.27
2016-12-21T04:05:07.811Z,21.25
2016-12-21T04:05:48.336Z,21.24
2016-12-21T04:06:28.869Z,21.27
2016-12-21T04:07:09.409Z,21.21
2016-12-21T04:07:49.929Z,21.2
2016-12-21T04:08:30.454Z,21.27
2016-12-21T04:09:11.003Z,21.25
2016-12-21T04:09:51.535Z,21.22
2016-12-21T04:10:32.069Z,21.22
2016-12-21T04:11:12.604Z,21.25
2016-12-21T04:11:53.129Z,21.29
2016-12-21T04:12:33.678Z,21.22
2016-12-21T04:13:14.204Z,21.21
2016-12-21T04:13:54.739Z,21.25
2016-12-21T04:14:35.271Z,21.25
2016-12-21T04:15:15.804Z,21.2
2016-12-21T04:15:56.340Z,21.22
2016-12-21T04:16:36.877Z,21.21
2016-12-21T04:17:17.410Z,21.21
2016-12-21T04:17:57.950Z,21.22
2016-12-21T04:18:38.483Z,21.21
2016-12-21T04:19:19.018Z,21.22
2016-12-21T04:19:59.551Z,21.18
2016-12-21T04:20:40.087Z,21.24
2016-12-21T04:21:20.611Z,21.24
2016-12-21T04:22:01.164Z,21.32
2016-12-21T04:22:41.706Z,21.25
2016-12-21T04:23:22.232Z,21.32
2016-12-21T04:24:02.757Z,21.24
2016-12-21T04:24:43.290Z,21.25
2016-12-21T04:25:23.824Z,21.3
2016-12-21T04:26:04.362Z,21.24
2016-12-21T04:26:44.893Z,21.22
2016-12-21T04:27:25.428Z,21.3
2016-12-21T04:28:05.950Z,21.37
2016-12-21T04:28:46.484Z,21.3
2016-12-21T04:29:27.014Z,21.35
2016-12-21T04:30:07.541Z,21.27
2016-12-21T04:30:48.083Z,21.24
2016-12-21T04:31:28.615Z,21.32
2016-12-21T04:32:09.150Z,21.35
2016-12-21T04:32:49.682Z,21.21
2016-12-21T04:33:30.226Z,21.21
2016-12-21T04:34:10.761Z,21.25
2016-12-21T04:34:51.297Z,21.21
2016-12-21T04:35:31.836Z,21.24
2016-12-21T04:36:12.370Z,21.17
2016-12-21T04:36:52.978Z,21.25
2016-12-21T04:37:33.508Z,21.24
2016-12-21T04:38:14.041Z,21.35
2016-12-21T04:38:54.572Z,21.22
2016-12-21T04:39:35.097Z,21.27
2016-12-21T04:40:15.640Z,21.24
2016-12-21T04:40:56.162Z,21.29
2016-12-21T04:41:36.706Z,21.25
2016-12-21T04:42:17.241Z,21.2
2016-12-21T04:42:57.779Z,21.25
2016-12-21T04:43:38.322Z,21.35
2016-12-21T04:44:18.856Z,21.24
2016-12-21T04:44:59.399Z,21.35
2016-12-21T04:45:39.939Z,21.27
2016-12-21T04:46:20.478Z,21.24
2016-12-21T04:47:01.017Z,21.25
2016-12-21T04:47:41.550Z,21.2
2016-12-21T04:48:22.089Z,21.2
2016-12-21T04:49:02.623Z,21.2
2016-12-21T04:49:43.153Z,21.29
2016-12-21T04:50:23.687Z,21.27
2016-12-21T04:51:04.232Z,21.25
2016-12-21T04:51:44.759Z,21.21
2016-12-21T04:52:25.290Z,21.3
2016-12-21T04:53:05.830Z,21.18
2016-12-21T04:53:46.362Z,21.29
2016-12-21T04:54:26.903Z,21.27
2016-12-21T04:55:07.443Z,21.36
2016-12-21T04:55:47.980Z,21.35
2016-12-21T04:56:28.517Z,21.29
2016-12-21T04:57:09.045Z,21.22
2016-12-21T04:57:49.586Z,21.27
2016-12-21T04:58:30.122Z,21.17
2016-12-21T04:59:10.662Z,21.3
2016-12-21T04:59:51.196Z,21.39
2016-12-21T05:00:31.740Z,21.33
2016-12-21T05:01:12.266Z,21.3
2016-12-21T05:01:52.809Z,21.3
2016-12-21T05:02:33.347Z,21.3
2016-12-21T05:03:13.892Z,21.2
2016-12-21T05:03:54.424Z,21.24
2016-12-21T05:04:34.952Z,21.25
2016-12-21T05:05:15.492Z,21.3
2016-12-21T05:05:56.027Z,21.4
2016-12-21T05:06:36.560Z,21.32
2016-12-21T05:07:17.093Z,21.33
2016-12-21T05:07:57.634Z,21.27
2016-12-21T05:08:38.173Z,21.32
2016-12-21T05:09:18.726Z,21.25
2016-12-21T05:09:59.258Z,21.3
2016-12-21T05:10:39.789Z,21.32
2016-12-21T05:11:20.332Z,21.37
2016-12-21T05:12:00.860Z,21.3
2016-12-21T05:12:41.397Z,21.3
2016-12-21T05:13:21.928Z,21.37
2016-12-21T05:14:02.456Z,21.27
2016-12-21T05:14:42.996Z,21.3
2016-12-21T05:15:23.524Z,21.25
2016-12-21T05:16:04.044Z,21.32
2016-12-21T05:16:44.579Z,21.25
2016-12-21T05:17:25.104Z,21.27
2016-12-21T05:18:05.635Z,21.33
2016-12-21T05:18:46.177Z,21.24
2016-12-21T05:19:26.719Z,21.29
2016-12-21T05:20:07.259Z,21.35
2016-12-21T05:20:47.793Z,21.32
2016-12-21T05:21:28.326Z,21.32
2016-12-21T05:22:08.859Z,21.32
2016-12-21T05:22:49.397Z,21.27
2016-12-21T05:23:29.930Z,21.32
2016-12-21T05:24:10.469Z,21.29
2016-12-21T05:24:51.010Z,21.3
2016-12-21T05:25:31.542Z,21.22
2016-12-21T05:26:12.083Z,21.36
2016-12-21T05:26:52.636Z,21.36
2016-12-21T05:27:33.160Z,21.39
2016-12-21T05:28:13.701Z,21.3
2016-12-21T05:28:54.235Z,21.39
2016-12-21T05:29:34.775Z,21.35
2016-12-21T05:30:15.310Z,21.32
2016-12-21T05:30:55.844Z,21.22
2016-12-21T05:31:36.380Z,21.25
2016-12-21T05:32:16.921Z,21.32
2016-12-21T05:32:57.468Z,21.24
2016-12-21T05:33:38.000Z,21.33
2016-12-21T05:34:18.529Z,21.22
2016-12-21T05:34:59.062Z,21.35
2016-12-21T05:35:39.600Z,21.25
2016-12-21T05:36:20.131Z,21.35
2016-12-21T05:37:00.676Z,21.29
2016-12-21T05:37:41.204Z,21.33
2016-12-21T05:38:21.737Z,21.32
2016-12-21T05:39:02.280Z,21.29
2016-12-21T05:39:42.814Z,21.32
2016-12-21T05:40:23.345Z,21.33
2016-12-21T05:41:03.884Z,21.36
2016-12-21T05:41:44.419Z,21.27
2016-12-21T05:42:24.954Z,21.33
2016-12-21T05:43:05.484Z,21.33
2016-12-21T05:43:46.005Z,21.35
2016-12-21T05:44:26.559Z,21.29
2016-12-21T05:45:07.078Z,21.32
2016-12-21T05:45:47.619Z,21.29
2016-12-21T05:46:28.153Z,21.33
2016-12-21T05:47:08.684Z,21.35
2016-12-21T05:47:49.222Z,21.25
2016-12-21T05:48:29.761Z,21.32
2016-12-21T05:49:10.288Z,21.27
2016-12-21T05:49:50.824Z,21.22
2016-12-21T05:50:31.363Z,21.3
2016-12-21T05:51:11.886Z,21.35
2016-12-21T05:51:52.419Z,21.39
2016-12-21T05:52:32.959Z,21.29
2016-12-21T05:53:13.494Z,21.2
2016-12-21T05:53:54.026Z,21.29
2016-12-21T05:54:34.555Z,21.35
2016-12-21T05:55:15.091Z,21.32
2016-12-21T05:55:55.632Z,21.33
2016-12-21T05:56:36.165Z,21.35
2016-12-21T05:57:16.702Z,21.32
2016-12-21T05:57:57.233Z,21.3
2016-12-21T05:58:37.777Z,21.22
2016-12-21T05:59:18.309Z,21.32
2016-12-21T05:59:58.844Z,21.33
2016-12-21T06:00:39.381Z,21.35
2016-12-21T06:01:19.914Z,21.33
2016-12-21T06:02:00.446Z,21.29
2016-12-21T06:02:40.979Z,21.33
2016-12-21T06:03:21.518Z,21.32
2016-12-21T06:04:02.053Z,21.36
2016-12-21T06:04:42.587Z,21.36
2016-12-21T06:05:23.119Z,21.37
2016-12-21T06:06:03.656Z,21.29
2016-12-21T06:06:44.188Z,21.33
2016-12-21T06:07:24.720Z,21.3
2016-12-21T06:08:05.254Z,21.35
2016-12-21T06:08:45.795Z,21.36
2016-12-21T06:09:26.330Z,21.35
2016-12-21T06:10:06.863Z,21.37
2016-12-21T06:10:47.399Z,21.3
2016-12-21T06:11:27.934Z,21.32
2016-12-21T06:12:08.469Z,21.35
2016-12-21T06:12:49.005Z,21.35
2016-12-21T06:13:29.559Z,21.35
2016-12-21T06:14:10.069Z,21.36
2016-12-21T06:14:50.611Z,21.29
2016-12-21T06:15:31.145Z,21.39
2016-12-21T06:16:11.686Z,21.29
2016-12-21T06:16:52.234Z,21.37
2016-12-21T06:17:32.766Z,21.32
2016-12-21T06:18:13.303Z,21.36
2016-12-21T06:18:53.837Z,21.25
2016-12-21T06:19:34.382Z,21.33
2016-12-21T06:20:14.909Z,21.33
2016-12-21T06:20:55.456Z,21.25
2016-12-21T06:21:35.983Z,21.37
2016-12-21T06:22:16.518Z,21.39
2016-12-21T06:22:57.055Z,21.29
2016-12-21T06:23:37.585Z,21.35
2016-12-21T06:24:18.122Z,21.36
2016-12-21T06:24:58.659Z,21.37
2016-12-21T06:25:39.196Z,21.39
2016-12-21T06:26:19.728Z,21.37
2016-12-21T06:27:00.266Z,21.36
2016-12-21T06:27:40.806Z,21.36
2016-12-21T06:28:21.337Z,21.3
2016-12-21T06:29:01.873Z,21.39
2016-12-21T06:29:42.408Z,21.37
2016-12-21T06:30:22.943Z,21.32
2016-12-21T06:31:03.468Z,21.37
2016-12-21T06:31:44.004Z,21.32
2016-12-21T06:32:24.544Z,21.25
2016-12-21T06:33:05.087Z,21.33
2016-12-21T06:33:45.612Z,21.35
2016-12-21T06:34:26.147Z,21.37
2016-12-21T06:35:06.682Z,21.35
2016-12-21T06:35:47.224Z,21.32
2016-12-21T06:36:27.753Z,21.36
2016-12-21T06:37:08.292Z,21.37
2016-12-21T06:37:48.823Z,21.32
2016-12-21T06:38:29.419Z,21.36
2016-12-21T06:39:09.958Z,21.35
2016-12-21T06:39:50.492Z,21.39
2016-12-21T06:40:31.050Z,21.35
2016-12-21T06:41:11.572Z,21.32
2016-12-21T06:41:52.102Z,21.29
2016-12-21T06:42:32.634Z,21.37
2016-12-21T06:43:13.167Z,21.37
2016-12-21T06:43:53.708Z,21.35
2016-12-21T06:44:34.260Z,21.35
2016-12-21T06:45:14.799Z,21.32
2016-12-21T06:45:55.347Z,21.29
2016-12-21T06:46:35.852Z,21.39
2016-12-21T06:47:16.382Z,21.35
2016-12-21T06:47:56.911Z,21.25
2016-12-21T06:48:37.455Z,21.25
2016-12-21T06:49:17.990Z,21.37
2016-12-21T06:49:58.519Z,21.4
2016-12-21T06:50:39.064Z,21.32
2016-12-21T06:51:19.598Z,21.22
2016-12-21T06:52:00.136Z,21.37
2016-12-21T06:52:40.673Z,21.37
2016-12-21T06:53:21.211Z,21.3
2016-12-21T06:54:01.745Z,21.25
2016-12-21T06:54:42.291Z,21.32
2016-12-21T06:55:22.821Z,21.37
2016-12-21T06:56:03.351Z,21.35
2016-12-21T06:56:43.885Z,21.35
2016-12-21T06:57:24.412Z,21.33
2016-12-21T06:58:04.943Z,21.29
2016-12-21T06:58:45.471Z,21.32
2016-12-21T06:59:26.015Z,21.33
2016-12-21T07:00:06.549Z,21.36
2016-12-21T07:00:47.084Z,21.39
2016-12-21T07:01:27.614Z,21.42
2016-12-21T07:02:08.140Z,21.36
2016-12-21T07:02:48.671Z,21.35
2016-12-21T07:03:29.198Z,21.37
2016-12-21T07:04:09.727Z,21.37
2016-12-21T07:04:50.257Z,21.35
2016-12-21T07:05:30.788Z,21.3
2016-12-21T07:06:11.319Z,21.36
2016-12-21T07:06:51.857Z,21.37
2016-12-21T07:07:32.395Z,21.3
2016-12-21T07:08:12.916Z,21.37
2016-12-21T07:08:53.453Z,21.3
2016-12-21T07:09:33.989Z,21.35
2016-12-21T07:10:14.502Z,21.37
2016-12-21T07:10:55.040Z,21.29
2016-12-21T07:11:35.581Z,21.35
2016-12-21T07:12:16.127Z,21.33
2016-12-21T07:12:56.655Z,21.36
2016-12-21T07:13:37.191Z,21.37
2016-12-21T07:14:17.714Z,21.29
2016-12-21T07:14:58.238Z,21.36
2016-12-21T07:15:38.771Z,21.36
2016-12-21T07:16:19.318Z,21.32
2016-12-21T07:16:59.839Z,21.35
2016-12-21T07:17:40.374Z,21.43
2016-12-21T07:18:20.912Z,21.3
2016-12-21T07:19:01.447Z,21.35
2016-12-21T07:19:41.975Z,21.32
2016-12-21T07:20:22.516Z,21.37
2016-12-21T07:21:03.053Z,21.37
2016-12-21T07:21:43.587Z,21.36
2016-12-21T07:22:24.112Z,21.4
2016-12-21T07:23:04.636Z,21.42
2016-12-21T07:23:45.177Z,21.25
2016-12-21T07:24:25.719Z,21.36
2016-12-21T07:25:06.268Z,21.37
2016-12-21T07:25:46.780Z,21.37
2016-12-21T07:26:27.316Z,21.36
2016-12-21T07:27:07.842Z,21.36
2016-12-21T07:27:48.385Z,21.37
2016-12-21T07:28:28.905Z,21.39
2016-12-21T07:29:09.438Z,21.37
2016-12-21T07:29:49.971Z,21.37
2016-12-21T07:30:30.489Z,21.36
2016-12-21T07:31:11.032Z,21.36
2016-12-21T07:31:51.568Z,21.3
2016-12-21T07:32:32.111Z,21.35
2016-12-21T07:33:12.645Z,21.33
2016-12-21T07:33:53.189Z,21.37
2016-12-21T07:34:33.720Z,21.32
2016-12-21T07:35:14.259Z,21.4
2016-12-21T07:35:54.790Z,21.37
2016-12-21T07:36:35.315Z,21.39
2016-12-21T07:37:15.853Z,21.35
2016-12-21T07:37:56.388Z,21.35
2016-12-21T07:38:36.908Z,21.36
2016-12-21T07:39:17.447Z,21.4
2016-12-21T07:39:57.965Z,21.4
2016-12-21T07:40:38.511Z,21.36
2016-12-21T07:41:19.038Z,21.37
2016-12-21T07:41:59.571Z,21.37
2016-12-21T07:42:40.108Z,21.36
2016-12-21T07:43:20.643Z,21.37
2016-12-21T07:44:01.179Z,21.35
2016-12-21T07:44:41.740Z,21.36
2016-12-21T07:45:22.267Z,21.33
2016-12-21T07:46:02.805Z,21.36
2016-12-21T07:46:43.348Z,21.37
2016-12-21T07:47:23.879Z,21.36
2016-12-21T07:48:04.406Z,21.37
2016-12-21T07:48:44.921Z,21.43
2016-12-21T07:49:25.462Z,21.36
2016-12-21T07:50:05.993Z,21.33
2016-12-21T07:50:46.541Z,21.32
2016-12-21T07:51:27.078Z,21.46
2016-12-21T07:52:07.598Z,21.46
2016-12-21T07:52:48.139Z,21.35
2016-12-21T07:53:28.677Z,21.33
2016-12-21T07:54:09.191Z,21.32
2016-12-21T07:54:49.727Z,21.37
2016-12-21T07:55:30.268Z,21.45
2016-12-21T07:56:10.797Z,21.42
2016-12-21T07:56:51.323Z,21.36
2016-12-21T07:57:31.882Z,21.36
2016-12-21T07:58:12.416Z,21.43
2016-12-21T07:58:52.955Z,21.51
2016-12-21T07:59:33.485Z,21.35
2016-12-21T08:00:14.014Z,21.35
2016-12-21T08:00:54.543Z,21.35
2016-12-21T08:01:35.098Z,21.39
2016-12-21T08:02:15.612Z,21.43
2016-12-21T08:02:56.142Z,21.43
2016-12-21T08:03:36.680Z,21.39
2016-12-21T08:04:17.228Z,21.43
2016-12-21T08:04:57.792Z,21.6
2016-12-21T08:06:34.461Z,18.88
2016-12-21T08:07:14.984Z,18
2016-12-21T08:07:55.525Z,17.19
2016-12-21T08:08:36.045Z,16.65
2016-12-21T08:09:16.577Z,16.31
2016-12-21T08:09:57.118Z,16.17
2016-12-21T08:10:37.656Z,15.9
2016-12-21T08:11:18.185Z,15.8
2016-12-21T08:11:58.708Z,15.77
2016-12-21T08:12:39.240Z,15.76
2016-12-21T08:13:19.773Z,15.84
2016-12-21T08:14:00.298Z,15.84
2016-12-21T08:14:40.837Z,15.83
2016-12-21T08:15:21.367Z,15.83
2016-12-21T08:16:01.895Z,15.83
2016-12-21T08:16:42.426Z,15.91
2016-12-21T08:17:22.959Z,15.84
2016-12-21T08:18:03.488Z,15.95
2016-12-21T08:18:44.016Z,15.86
2016-12-21T08:19:24.549Z,15.88
2016-12-21T08:20:05.080Z,15.84
2016-12-21T08:20:45.609Z,15.94
2016-12-21T08:21:26.137Z,15.83
2016-12-21T08:22:06.668Z,15.75
2016-12-21T08:22:47.183Z,15.82
2016-12-21T08:23:27.709Z,15.82
2016-12-21T08:24:08.260Z,15.92
2016-12-21T08:24:48.778Z,15.91
2016-12-21T08:25:29.298Z,15.92
2016-12-21T08:26:09.824Z,15.82
2016-12-21T08:26:50.359Z,15.83
2016-12-21T08:27:30.890Z,15.83
2016-12-21T08:28:11.448Z,15.86
2016-12-21T08:28:51.980Z,15.83
2016-12-21T08:29:32.513Z,15.83
2016-12-21T08:30:13.046Z,15.94
2016-12-21T08:30:53.569Z,15.88
2016-12-21T08:31:34.088Z,15.86
2016-12-21T08:32:14.608Z,15.86
2016-12-21T08:32:55.130Z,15.92
2016-12-21T08:33:35.667Z,15.94
2016-12-21T08:34:16.196Z,15.97
2016-12-21T08:34:56.718Z,15.83
2016-12-21T08:35:37.245Z,15.88
2016-12-21T08:36:17.938Z,15.82
2016-12-21T08:36:58.551Z,15.83
2016-12-21T08:37:39.598Z,15.77
2016-12-21T08:38:20.532Z,15.95
2016-12-21T08:39:01.382Z,15.92
2016-12-21T08:39:42.529Z,15.9
2016-12-21T08:40:23.507Z,15.86
2016-12-21T08:41:04.717Z,15.94
2016-12-21T08:41:45.747Z,15.92
2016-12-21T08:42:26.544Z,15.84
2016-12-21T08:43:07.153Z,15.84
2016-12-21T08:43:47.778Z,15.82
2016-12-21T08:44:28.398Z,15.77
2016-12-21T08:45:09.038Z,15.83
2016-12-21T08:45:49.699Z,15.82